createdAt,value
2022-10-22T00:00:55.437Z,98805.22
2022-10-22T00:03:21.975Z,98804.25
2022-10-22T00:05:48.516Z,98804.25
2022-10-22T00:08:15.082Z,98819.88
2022-10-22T00:10:41.652Z,98812.75
2022-10-22T00:13:07.985Z,98808.56
2022-10-22T00:15:34.949Z,98805.22
2022-10-22T00:18:01.364Z,98814.56
2022-10-22T00:20:27.835Z,98827.09
2022-10-22T00:22:54.333Z,98843.69
2022-10-22T00:25:21.000Z,98838.53
2022-10-22T00:27:47.352Z,98834.06
2022-10-22T00:30:14.037Z,98830.13
2022-10-22T00:32:40.691Z,98831.81
2022-10-22T00:35:07.445Z,98840.31
2022-10-22T00:37:33.971Z,98838.53
2022-10-22T00:40:00.281Z,98834.06
2022-10-22T00:42:27.619Z,98848.59
2022-10-22T00:45:02.904Z,98860.97
2022-10-22T00:47:35.548Z,98846.59
2022-10-22T00:50:05.122Z,98846.19
2022-10-22T00:52:32.145Z,98852.72
2022-10-22T00:54:59.565Z,98866.41
2022-10-22T00:57:26.154Z,98860.53
2022-10-22T00:59:52.957Z,98874.44
2022-10-22T01:02:19.445Z,98870.75
2022-10-22T01:04:45.934Z,98863.75
2022-10-22T01:07:22.008Z,98868.09
2022-10-22T01:10:03.217Z,98874.81
2022-10-22T01:12:48.148Z,98871.31
2022-10-22T01:15:37.464Z,98860.84
2022-10-22T01:18:21.268Z,98848.06
2022-10-22T01:20:54.534Z,98839.84
2022-10-22T01:23:39.187Z,98828.13
2022-10-22T01:28:54.181Z,98814.63
2022-10-22T01:31:23.585Z,98807.22
2022-10-22T01:33:53.298Z,98792.94
2022-10-22T01:36:21.347Z,98791.03
2022-10-22T01:38:49.872Z,98786.00
2022-10-22T01:41:16.450Z,98786.13
2022-10-22T01:43:42.774Z,98766.88
2022-10-22T01:46:11.605Z,98776.66
2022-10-22T01:48:45.982Z,98773.31
2022-10-22T01:51:48.326Z,98780.00
2022-10-22T01:54:20.790Z,98781.25
2022-10-22T01:57:17.821Z,98781.97
2022-10-22T01:59:57.951Z,98786.97
2022-10-22T02:02:51.176Z,98791.28
2022-10-22T02:05:40.078Z,98799.38
2022-10-22T02:08:10.318Z,98795.31
2022-10-22T02:10:42.105Z,98793.75
2022-10-22T02:13:12.461Z,98795.72
2022-10-22T02:15:40.967Z,98799.78
2022-10-22T02:18:10.416Z,98793.19
2022-10-22T02:20:41.725Z,98798.09
2022-10-22T02:23:09.231Z,98807.84
2022-10-22T02:25:39.919Z,98798.75
2022-10-22T02:28:16.813Z,98810.63
2022-10-22T02:30:47.047Z,98816.75
2022-10-22T02:33:19.936Z,98816.75
2022-10-22T02:35:47.697Z,98809.19
2022-10-22T02:38:14.966Z,98810.50
2022-10-22T02:40:41.646Z,98819.66
2022-10-22T02:43:08.530Z,98828.16
2022-10-22T02:45:35.650Z,98830.53
2022-10-22T02:48:02.431Z,98814.22
2022-10-22T02:50:29.381Z,98822.47
2022-10-22T02:52:55.706Z,98817.75
2022-10-22T02:55:22.179Z,98820.81
2022-10-22T02:57:48.638Z,98804.38
2022-10-22T03:00:15.433Z,98815.53
2022-10-22T03:02:41.905Z,98813.03
2022-10-22T03:05:08.822Z,98815.66
2022-10-22T03:07:35.542Z,98816.75
2022-10-22T03:10:02.067Z,98814.13
2022-10-22T03:12:28.424Z,98806.31
2022-10-22T03:14:54.795Z,98815.66
2022-10-22T03:17:21.249Z,98815.09
2022-10-22T03:19:47.645Z,98813.28
2022-10-22T03:22:21.089Z,98806.31
2022-10-22T03:24:52.165Z,98819.41
2022-10-22T03:27:21.740Z,98819.53
2022-10-22T03:29:51.498Z,98829.44
2022-10-22T03:32:18.579Z,98838.78
2022-10-22T03:34:44.942Z,98844.34
2022-10-22T03:37:12.145Z,98841.72
2022-10-22T03:39:38.861Z,98834.88
2022-10-22T03:42:06.967Z,98844.22
2022-10-22T03:44:35.537Z,98842.81
2022-10-22T03:47:02.859Z,98851.03
2022-10-22T03:49:29.455Z,98854.66
2022-10-22T03:51:56.006Z,98866.06
2022-10-22T03:54:22.431Z,98863.00
2022-10-22T03:56:48.798Z,98869.44
2022-10-22T03:59:15.454Z,98870.69
2022-10-22T04:01:41.857Z,98874.75
2022-10-22T04:04:08.942Z,98886.84
2022-10-22T04:06:35.677Z,98880.41
2022-10-22T04:09:02.092Z,98883.78
2022-10-22T04:11:28.606Z,98874.69
2022-10-22T04:13:54.945Z,98892.97
2022-10-22T04:16:25.124Z,98896.28
2022-10-22T04:18:54.168Z,98898.13
2022-10-22T04:21:20.648Z,98904.09
2022-10-22T04:23:49.459Z,98907.63
2022-10-22T04:26:18.467Z,98902.88
2022-10-22T04:28:46.728Z,98901.91
2022-10-22T04:31:15.760Z,98909.59
2022-10-22T04:33:43.422Z,98917.50
2022-10-22T04:36:12.773Z,98914.44
2022-10-22T04:38:39.973Z,98904.13
2022-10-22T04:41:21.993Z,98916.38
2022-10-22T04:43:49.194Z,98923.38
2022-10-22T04:46:17.557Z,98919.13
2022-10-22T04:48:45.736Z,98917.53
2022-10-22T04:51:15.786Z,98919.94
2022-10-22T04:53:43.572Z,98919.09
2022-10-22T04:56:19.678Z,98921.47
2022-10-22T04:58:48.483Z,98919.22
2022-10-22T05:01:18.434Z,98916.84
2022-10-22T05:03:46.192Z,98920.34
2022-10-22T05:06:14.179Z,98919.78
2022-10-22T05:08:40.979Z,98917.81
2022-10-22T05:11:19.369Z,98915.72
2022-10-22T05:13:46.456Z,98920.44
2022-10-22T05:16:13.731Z,98923.72
2022-10-22T05:18:42.478Z,98936.34
2022-10-22T05:21:11.538Z,98929.13
2022-10-22T05:23:38.605Z,98936.81
2022-10-22T05:26:07.132Z,98932.53
2022-10-22T05:28:34.332Z,98924.94
2022-10-22T05:31:02.047Z,98920.97
2022-10-22T05:33:29.798Z,98920.00
2022-10-22T05:35:56.933Z,98913.56
2022-10-22T05:38:24.082Z,98927.34
2022-10-22T05:41:08.632Z,98923.00
2022-10-22T05:43:36.273Z,98925.72
2022-10-22T05:46:21.992Z,98924.63
2022-10-22T05:48:53.516Z,98921.03
2022-10-22T05:51:21.590Z,98920.09
2022-10-22T05:53:52.595Z,98914.78
2022-10-22T05:56:19.040Z,98924.16
2022-10-22T05:58:45.589Z,98921.69
2022-10-22T06:01:23.942Z,98928.34
2022-10-22T06:03:53.794Z,98933.56
2022-10-22T06:06:27.787Z,98944.06
2022-10-22T06:08:56.206Z,98937.47
2022-10-22T06:11:23.730Z,98927.34
2022-10-22T06:13:51.517Z,98936.50
2022-10-22T06:16:18.586Z,98934.97
2022-10-22T06:18:45.390Z,98931.22
2022-10-22T06:21:15.272Z,98939.41
2022-10-22T06:23:43.132Z,98941.03
2022-10-22T06:26:10.772Z,98950.75
2022-10-22T06:28:38.037Z,98944.47
2022-10-22T06:31:05.233Z,98953.22
2022-10-22T06:33:33.686Z,98957.94
2022-10-22T06:36:15.066Z,98959.72
2022-10-22T06:38:42.454Z,98970.53
2022-10-22T06:41:14.016Z,98970.09
2022-10-22T06:43:45.677Z,98986.66
2022-10-22T06:46:14.917Z,98985.00
2022-10-22T06:48:48.980Z,99000.75
2022-10-22T06:51:15.371Z,99019.00
2022-10-22T06:53:42.173Z,99019.50
2022-10-22T06:56:11.346Z,99042.41
2022-10-22T06:58:38.283Z,99044.06
2022-10-22T07:01:11.150Z,99035.25
2022-10-22T07:03:39.244Z,99053.94
2022-10-22T07:06:10.183Z,99041.22
2022-10-22T07:08:38.106Z,99047.22
2022-10-22T07:11:18.949Z,99062.59
2022-10-22T07:13:46.360Z,99055.13
2022-10-22T07:16:14.126Z,99063.03
2022-10-22T07:18:41.757Z,99069.06
2022-10-22T07:21:09.303Z,99081.97
2022-10-22T07:23:35.966Z,99079.44
2022-10-22T07:26:03.005Z,99099.72
2022-10-22T07:28:30.366Z,99090.00
2022-10-22T07:30:56.742Z,99101.50
2022-10-22T07:33:23.189Z,99106.47
2022-10-22T07:35:49.562Z,99105.25
2022-10-22T07:38:16.218Z,99109.72
2022-10-22T07:40:42.690Z,99114.34
2022-10-22T07:43:09.115Z,99116.50
2022-10-22T07:45:35.634Z,99123.22
2022-10-22T07:48:02.049Z,99123.22
2022-10-22T07:50:28.631Z,99123.94
2022-10-22T07:52:57.446Z,99129.81
2022-10-22T07:55:25.099Z,99130.13
2022-10-22T07:57:51.556Z,99135.31
2022-10-22T08:00:20.495Z,99129.56
2022-10-22T08:02:49.571Z,99138.78
2022-10-22T08:05:15.970Z,99151.34
2022-10-22T08:07:43.249Z,99142.38
2022-10-22T08:10:11.503Z,99146.84
2022-10-22T08:12:38.653Z,99135.81
2022-10-22T08:15:06.151Z,99135.09
2022-10-22T08:17:32.481Z,99130.16
2022-10-22T08:19:59.153Z,99131.63
2022-10-22T08:22:25.976Z,99120.09
2022-10-22T08:24:52.462Z,99140.06
2022-10-22T08:27:19.194Z,99140.31
2022-10-22T08:29:45.949Z,99138.63
2022-10-22T08:32:12.352Z,99137.16
2022-10-22T08:34:39.119Z,99134.13
2022-10-22T08:37:05.445Z,99147.22
2022-10-22T08:39:31.885Z,99132.94
2022-10-22T08:42:33.485Z,99142.66
2022-10-22T08:45:06.053Z,99144.72
2022-10-22T08:47:49.761Z,99148.50
2022-10-22T08:50:23.176Z,99145.59
2022-10-22T08:52:59.555Z,99144.00
2022-10-22T08:55:26.392Z,99155.16
2022-10-22T08:57:55.771Z,99153.50
2022-10-22T09:00:37.555Z,99143.47
2022-10-22T09:03:09.824Z,99157.16
2022-10-22T09:05:44.198Z,99154.84
2022-10-22T09:08:13.041Z,99151.50
2022-10-22T09:10:45.987Z,99157.84
2022-10-22T09:13:16.091Z,99168.31
2022-10-22T09:15:44.993Z,99165.84
2022-10-22T09:18:41.082Z,99168.19
2022-10-22T09:21:26.805Z,99173.94
2022-10-22T09:24:05.959Z,99173.16
2022-10-22T09:26:37.125Z,99169.97
2022-10-22T09:29:04.620Z,99158.59
2022-10-22T09:31:33.361Z,99169.50
2022-10-22T09:34:00.321Z,99176.06
2022-10-22T09:36:29.212Z,99165.84
2022-10-22T09:38:56.098Z,99166.72
2022-10-22T09:41:26.255Z,99181.22
2022-10-22T09:43:52.769Z,99176.59
2022-10-22T09:46:22.080Z,99176.78
2022-10-22T09:48:53.837Z,99185.88
2022-10-22T09:51:21.773Z,99176.94
2022-10-22T09:53:57.000Z,99181.94
2022-10-22T09:56:38.940Z,99192.72
2022-10-22T09:59:06.786Z,99183.75
2022-10-22T10:01:36.903Z,99190.47
2022-10-22T10:04:09.857Z,99195.63
2022-10-22T10:06:38.744Z,99193.94
2022-10-22T10:09:21.458Z,99194.69
2022-10-22T10:12:05.284Z,99201.09
2022-10-22T10:14:39.684Z,99197.44
2022-10-22T10:17:17.896Z,99193.25
2022-10-22T10:20:03.708Z,99192.56
2022-10-22T10:22:48.518Z,99194.13
2022-10-22T10:25:28.270Z,99198.59
2022-10-22T10:28:11.430Z,99198.63
2022-10-22T10:30:51.653Z,99194.28
2022-10-22T10:33:32.091Z,99197.09
2022-10-22T10:36:08.295Z,99189.38
2022-10-22T10:38:46.791Z,99186.47
2022-10-22T10:41:22.776Z,99193.03
2022-10-22T10:43:52.081Z,99193.66
2022-10-22T10:46:34.796Z,99195.53
2022-10-22T10:49:10.979Z,99192.84
2022-10-22T10:51:52.961Z,99187.19
2022-10-22T10:54:44.125Z,99193.72
2022-10-22T10:57:34.396Z,99189.69
2022-10-22T11:00:11.338Z,99183.69
2022-10-22T11:02:43.684Z,99188.19
2022-10-22T11:05:30.632Z,99188.97
2022-10-22T11:08:21.321Z,99193.66
2022-10-22T11:11:02.698Z,99197.53
2022-10-22T11:13:45.651Z,99189.09
2022-10-22T11:16:28.638Z,99200.16
2022-10-22T11:19:15.493Z,99196.38
2022-10-22T11:22:03.578Z,99198.44
2022-10-22T11:24:45.223Z,99198.44
2022-10-22T11:27:22.010Z,99204.38
2022-10-22T11:30:02.000Z,99183.00
2022-10-22T11:32:29.892Z,99176.09
2022-10-22T11:35:01.042Z,99186.97
2022-10-22T11:37:32.595Z,99184.16
2022-10-22T11:40:05.969Z,99185.44
2022-10-22T11:42:34.369Z,99185.44
2022-10-22T11:45:26.216Z,99186.84
2022-10-22T11:47:52.528Z,99185.75
2022-10-22T11:50:24.834Z,99186.69
2022-10-22T11:53:02.004Z,99181.19
2022-10-22T11:55:40.814Z,99190.19
2022-10-22T11:58:27.084Z,99191.41
2022-10-22T12:01:01.782Z,99184.47
2022-10-22T12:03:30.871Z,99189.06
2022-10-22T12:06:06.750Z,99191.53
2022-10-22T12:08:33.914Z,99183.47
2022-10-22T12:11:03.819Z,99192.88
2022-10-22T12:13:33.974Z,99193.84
2022-10-22T12:16:03.956Z,99196.00
2022-10-22T12:18:41.276Z,99188.56
2022-10-22T12:21:13.188Z,99190.88
2022-10-22T12:23:39.906Z,99193.91
2022-10-22T12:26:06.637Z,99182.97
2022-10-22T12:28:40.334Z,99190.66
2022-10-22T12:31:14.833Z,99167.91
2022-10-22T12:33:41.521Z,99170.56
2022-10-22T12:36:15.739Z,99168.47
2022-10-22T12:38:45.981Z,99167.78
2022-10-22T12:41:13.125Z,99162.91
2022-10-22T12:43:39.520Z,99163.84
2022-10-22T12:46:12.853Z,99151.13
2022-10-22T12:48:42.978Z,99160.16
2022-10-22T12:51:16.229Z,99155.09
2022-10-22T12:53:53.449Z,99161.38
2022-10-22T12:56:26.545Z,99163.28
2022-10-22T12:58:58.862Z,99158.59
2022-10-22T13:01:27.805Z,99151.03
2022-10-22T13:04:21.223Z,99150.09
2022-10-22T13:07:04.390Z,99144.59
2022-10-22T13:09:55.311Z,99156.84
2022-10-22T13:12:26.613Z,99151.50
2022-10-22T13:14:53.127Z,99157.31
2022-10-22T13:17:37.121Z,99151.47
2022-10-22T13:20:15.000Z,99153.34
2022-10-22T13:22:55.214Z,99148.53
2022-10-22T13:25:33.572Z,99145.19
2022-10-22T13:28:19.536Z,99147.88
2022-10-22T13:31:00.089Z,99146.91
2022-10-22T13:33:34.526Z,99140.97
2022-10-22T13:36:01.339Z,99152.13
2022-10-22T13:38:28.376Z,99157.69
2022-10-22T13:40:56.101Z,99156.16
2022-10-22T13:43:23.368Z,99161.78
2022-10-22T13:45:55.501Z,99166.59
2022-10-22T13:48:24.168Z,99162.16
2022-10-22T13:50:51.440Z,99163.84
2022-10-22T13:53:26.652Z,99164.91
2022-10-22T13:55:53.234Z,99158.50
2022-10-22T13:58:22.205Z,99168.84
2022-10-22T14:00:57.942Z,99169.25
2022-10-22T14:03:32.330Z,99174.03
2022-10-22T14:05:59.147Z,99174.03
2022-10-22T14:08:27.784Z,99174.50
2022-10-22T14:10:54.715Z,99175.94
2022-10-22T14:13:21.648Z,99189.41
2022-10-22T14:15:50.308Z,99187.75
2022-10-22T14:18:21.935Z,99182.72
2022-10-22T14:20:48.377Z,99182.19
2022-10-22T14:23:19.634Z,99181.25
2022-10-22T14:25:46.086Z,99189.09
2022-10-22T14:28:12.600Z,99185.94
2022-10-22T14:30:40.162Z,99187.22
2022-10-22T14:33:31.382Z,99194.53
2022-10-22T14:36:00.286Z,99191.84
2022-10-22T14:38:27.024Z,99201.28
2022-10-22T14:40:54.179Z,99202.34
2022-10-22T14:43:26.680Z,99201.53
2022-10-22T14:45:53.468Z,99203.28
2022-10-22T14:50:51.616Z,99197.75
2022-10-22T14:53:18.138Z,99198.25
2022-10-22T14:55:45.642Z,99204.63
2022-10-22T14:58:12.015Z,99205.00
2022-10-22T15:00:41.542Z,99198.09
2022-10-22T15:03:08.451Z,99206.09
2022-10-22T15:05:34.906Z,99212.34
2022-10-22T15:08:01.400Z,99209.22
2022-10-22T15:10:28.081Z,99219.94
2022-10-22T15:12:54.535Z,99218.09
2022-10-22T15:18:04.955Z,99215.69
2022-10-22T15:20:31.272Z,99217.06
2022-10-22T15:22:57.685Z,99214.34
2022-10-22T15:25:24.080Z,99213.78
2022-10-22T15:27:52.498Z,99217.84
2022-10-22T15:30:20.009Z,99219.03
2022-10-22T15:32:46.589Z,99220.84
2022-10-22T15:35:13.069Z,99222.28
2022-10-22T15:37:39.627Z,99224.28
2022-10-22T15:40:06.506Z,99232.25
2022-10-22T15:42:32.949Z,99223.59
2022-10-22T15:44:59.653Z,99224.81
2022-10-22T15:47:26.594Z,99230.34
2022-10-22T15:49:53.317Z,99227.50
2022-10-22T15:52:19.854Z,99243.59
2022-10-22T15:54:46.193Z,99235.81
2022-10-22T15:57:12.666Z,99235.53
2022-10-22T15:59:39.165Z,99240.84
2022-10-22T16:02:05.553Z,99250.09
2022-10-22T16:04:31.952Z,99250.25
2022-10-22T16:06:59.657Z,99245.44
2022-10-22T16:09:27.416Z,99259.53
2022-10-22T16:11:55.117Z,99264.72
2022-10-22T16:14:22.628Z,99253.50
2022-10-22T16:16:52.629Z,99267.03
2022-10-22T16:19:20.968Z,99270.09
2022-10-22T16:21:52.533Z,99282.22
2022-10-22T16:24:20.001Z,99285.16
2022-10-22T16:26:46.948Z,99270.44
2022-10-22T16:29:13.593Z,99283.16
2022-10-22T16:31:41.402Z,99282.47
2022-10-22T16:34:07.764Z,99286.75
2022-10-22T16:36:34.453Z,99290.91
2022-10-22T16:39:01.240Z,99295.91
2022-10-22T16:41:27.998Z,99301.34
2022-10-22T16:43:55.263Z,99301.06
2022-10-22T16:46:22.583Z,99318.88
2022-10-22T16:48:53.112Z,99317.88
2022-10-22T16:51:22.725Z,99321.63
2022-10-22T16:53:51.364Z,99308.25
2022-10-22T16:56:18.350Z,99323.06
2022-10-22T16:58:56.382Z,99320.22
2022-10-22T17:01:25.099Z,99316.28
2022-10-22T17:03:52.143Z,99312.94
2022-10-22T17:06:18.640Z,99311.94
2022-10-22T17:08:45.365Z,99314.19
2022-10-22T17:11:13.989Z,99312.66
2022-10-22T17:13:41.445Z,99319.75
2022-10-22T17:16:10.494Z,99312.59
2022-10-22T17:18:39.003Z,99312.31
2022-10-22T17:21:06.771Z,99326.69
2022-10-22T17:23:33.179Z,99313.03
2022-10-22T17:26:08.269Z,99326.28
2022-10-22T17:28:36.193Z,99322.56
2022-10-22T17:31:16.605Z,99324.78
2022-10-22T17:33:43.766Z,99313.25
2022-10-22T17:36:11.031Z,99326.47
2022-10-22T17:38:38.260Z,99323.88
2022-10-22T17:41:07.004Z,99334.59
2022-10-22T17:43:36.259Z,99324.38
2022-10-22T17:46:07.614Z,99324.75
2022-10-22T17:48:36.664Z,99337.25
2022-10-22T17:51:07.410Z,99331.25
2022-10-22T17:53:33.890Z,99334.13
2022-10-22T17:56:04.681Z,99334.88
2022-10-22T17:58:31.146Z,99344.97
2022-10-22T18:00:58.680Z,99346.75
2022-10-22T18:03:26.380Z,99351.34
2022-10-22T18:05:52.903Z,99340.88
2022-10-22T18:08:19.391Z,99338.09
2022-10-22T18:10:45.907Z,99338.81
2022-10-22T18:13:13.303Z,99342.41
2022-10-22T18:15:40.076Z,99357.91
2022-10-22T18:18:06.627Z,99357.31
2022-10-22T18:20:33.567Z,99370.16
2022-10-22T18:23:00.001Z,99361.50
2022-10-22T18:25:26.454Z,99356.91
2022-10-22T18:27:53.225Z,99360.44
2022-10-22T18:30:19.925Z,99349.22
2022-10-22T18:32:46.273Z,99365.09
2022-10-22T18:35:12.763Z,99364.56
2022-10-22T18:37:39.220Z,99364.44
2022-10-22T18:40:06.411Z,99359.75
2022-10-22T18:42:37.771Z,99371.63
2022-10-22T18:45:06.080Z,99379.56
2022-10-22T18:47:32.603Z,99378.31
2022-10-22T18:49:58.916Z,99379.84
2022-10-22T18:52:25.270Z,99377.03
2022-10-22T18:54:51.736Z,99381.66
2022-10-22T18:57:18.151Z,99368.41
2022-10-22T18:59:44.609Z,99384.53
2022-10-22T19:02:10.996Z,99381.28
2022-10-22T19:04:37.375Z,99393.53
2022-10-22T19:07:05.022Z,99390.25
2022-10-22T19:09:31.729Z,99388.94
2022-10-22T19:11:58.079Z,99393.97
2022-10-22T19:14:24.510Z,99375.41
2022-10-22T19:16:51.049Z,99377.22
2022-10-22T19:19:21.659Z,99378.59
2022-10-22T19:21:48.679Z,99384.31
2022-10-22T19:24:17.126Z,99393.06
2022-10-22T19:26:44.239Z,99390.16
2022-10-22T19:29:11.086Z,99397.19
2022-10-22T19:31:37.793Z,99398.06
2022-10-22T19:34:04.602Z,99392.03
2022-10-22T19:36:32.423Z,99392.59
2022-10-22T19:38:59.512Z,99392.59
2022-10-22T19:41:28.464Z,99405.56
2022-10-22T19:43:56.881Z,99410.84
2022-10-22T19:46:24.690Z,99407.47
2022-10-22T19:51:41.923Z,99405.34
2022-10-22T19:54:12.041Z,99421.41
2022-10-22T19:56:39.028Z,99414.63
2022-10-22T19:59:05.922Z,99420.91
2022-10-22T20:01:32.422Z,99420.13
2022-10-22T20:03:59.106Z,99427.44
2022-10-22T20:06:25.564Z,99422.38
2022-10-22T20:08:55.227Z,99424.19
2022-10-22T20:11:25.431Z,99423.09
2022-10-22T20:13:52.619Z,99418.59
2022-10-22T20:16:22.218Z,99431.66
2022-10-22T20:18:49.806Z,99419.97
2022-10-22T20:21:20.283Z,99432.41
2022-10-22T20:23:47.810Z,99429.03
2022-10-22T20:26:14.526Z,99407.09
2022-10-22T20:28:41.040Z,99421.44
2022-10-22T20:31:12.564Z,99423.97
2022-10-22T20:33:39.529Z,99416.28
2022-10-22T20:36:09.402Z,99420.13
2022-10-22T20:41:07.113Z,99419.63
2022-10-22T20:43:34.540Z,99415.63
2022-10-22T20:46:01.454Z,99411.00
2022-10-22T20:48:28.689Z,99408.84
2022-10-22T20:50:56.103Z,99412.34
2022-10-22T20:53:22.970Z,99414.34
2022-10-22T20:55:51.393Z,99412.75
2022-10-22T20:58:18.012Z,99405.81
2022-10-22T21:00:45.956Z,99407.91
2022-10-22T21:03:14.078Z,99418.16
2022-10-22T21:05:40.804Z,99418.25
2022-10-22T21:08:07.323Z,99421.75
2022-10-22T21:10:34.766Z,99421.88
2022-10-22T21:13:01.115Z,99421.97
2022-10-22T21:15:28.124Z,99434.75
2022-10-22T21:17:54.937Z,99430.50
2022-10-22T21:20:24.580Z,99426.81
2022-10-22T21:22:51.373Z,99433.03
2022-10-22T21:25:18.215Z,99430.19
2022-10-22T21:27:44.779Z,99434.31
2022-10-22T21:30:12.319Z,99437.69
2022-10-22T21:32:38.908Z,99429.03
2022-10-22T21:35:05.746Z,99438.41
2022-10-22T21:37:32.228Z,99438.50
2022-10-22T21:39:58.703Z,99437.47
2022-10-22T21:42:25.122Z,99438.28
2022-10-22T21:44:51.573Z,99432.91
2022-10-22T21:47:17.939Z,99423.53
2022-10-22T21:49:44.499Z,99432.19
2022-10-22T21:52:11.312Z,99434.81
2022-10-22T21:54:37.753Z,99426.41
2022-10-22T21:57:04.412Z,99432.91
2022-10-22T21:59:31.115Z,99427.22
2022-10-22T22:02:03.392Z,99431.88
2022-10-22T22:04:32.099Z,99423.22
2022-10-22T22:06:58.748Z,99428.50
2022-10-22T22:09:25.201Z,99425.13
2022-10-22T22:11:51.878Z,99423.31
2022-10-22T22:14:18.261Z,99431.47
2022-10-22T22:16:44.724Z,99422.09
2022-10-22T22:19:12.089Z,99423.97
2022-10-22T22:21:40.804Z,99430.31
2022-10-22T22:24:08.992Z,99429.69
2022-10-22T22:26:36.429Z,99423.38
2022-10-22T22:29:03.106Z,99428.53
2022-10-22T22:31:32.830Z,99425.91
2022-10-22T22:34:05.983Z,99414.09
2022-10-22T22:36:38.471Z,99406.59
2022-10-22T22:39:07.496Z,99406.59
2022-10-22T22:41:34.269Z,99404.28
2022-10-22T22:44:00.742Z,99400.25
2022-10-22T22:46:27.179Z,99402.06
2022-10-22T22:48:53.767Z,99403.00
2022-10-22T22:51:20.518Z,99409.09
2022-10-22T22:53:47.035Z,99404.91
2022-10-22T22:56:16.816Z,99404.34
2022-10-22T22:58:44.019Z,99415.66
2022-10-22T23:01:27.430Z,99418.31
2022-10-22T23:03:58.358Z,99427.97
2022-10-22T23:06:27.045Z,99423.78
2022-10-22T23:08:54.452Z,99415.44
2022-10-22T23:11:22.456Z,99416.28
2022-10-22T23:13:59.175Z,99419.75
2022-10-22T23:16:28.673Z,99417.84
2022-10-22T23:18:55.664Z,99410.38
2022-10-22T23:21:34.435Z,99410.38
2022-10-22T23:24:04.794Z,99408.69
2022-10-22T23:26:34.748Z,99408.03
2022-10-22T23:29:02.935Z,99401.31
2022-10-22T23:31:29.419Z,99396.66
2022-10-22T23:33:55.854Z,99397.19
2022-10-22T23:36:22.268Z,99395.06
2022-10-22T23:38:48.613Z,99396.88
2022-10-22T23:41:15.016Z,99394.03
2022-10-22T23:43:41.428Z,99398.56
2022-10-22T23:46:10.822Z,99397.06
2022-10-22T23:48:38.238Z,99398.88
2022-10-22T23:51:10.051Z,99386.84
2022-10-22T23:53:36.445Z,99395.88
2022-10-22T23:56:08.703Z,99390.81
2022-10-22T23:58:35.558Z,99398.91
